createdAt,value
2019-05-25T05:11:52.478Z,85.01
2019-05-25T05:21:52.153Z,83.61
2019-05-25T05:31:52.408Z,83.76
2019-05-25T05:41:52.782Z,83.57
2019-05-25T05:51:54.385Z,83.46
2019-05-25T06:01:51.489Z,82.27
2019-05-25T06:11:52.486Z,80.91
2019-05-25T06:21:52.138Z,81.88
2019-05-25T06:31:52.720Z,80.42
2019-05-25T06:41:52.068Z,74.08
2019-05-25T06:51:54.197Z,75.64
2019-05-25T07:01:52.418Z,76.71
2019-05-25T07:11:52.182Z,74.05
2019-05-25T07:22:00.561Z,73.99
2019-05-25T07:31:52.431Z,78.96
2019-05-25T07:41:50.837Z,81.15
2019-05-25T07:51:52.558Z,78.96
2019-05-25T08:01:52.626Z,79.14
2019-05-25T08:11:53.610Z,73.62
2019-05-25T08:21:54.211Z,73.89
2019-05-25T08:31:52.528Z,71.56
2019-05-25T08:41:52.499Z,73.61
2019-05-25T08:51:54.931Z,74.92
2019-05-25T11:26:42.628Z,66.92
2019-05-25T11:36:43.109Z,68.70
2019-05-25T11:46:42.766Z,69.61
2019-05-25T11:56:42.735Z,71.76
2019-05-25T12:06:46.795Z,71.20
2019-05-25T12:16:42.575Z,68.39
2019-05-25T12:26:42.652Z,67.73
2019-05-25T12:36:42.622Z,69.93
2019-05-25T12:46:44.309Z,66.71
2019-05-25T12:56:44.281Z,64.58
2019-05-25T13:06:42.512Z,64.92
2019-05-25T13:16:44.415Z,64.47
2019-05-25T13:26:42.462Z,62.40
2019-05-25T13:36:43.441Z,62.88
2019-05-25T13:46:43.603Z,63.71
2019-05-25T13:56:42.752Z,64.61
2019-05-25T14:06:44.387Z,62.75
2019-05-25T14:16:43.407Z,58.77
2019-05-25T14:26:44.289Z,64.00
2019-05-25T14:36:43.339Z,62.70
2019-05-25T14:46:43.307Z,62.88
2019-05-25T14:56:45.094Z,65.58
2019-05-25T15:06:42.884Z,65.45
2019-05-25T15:16:42.909Z,65.05
2019-05-25T15:26:43.487Z,63.98
2019-05-25T15:36:42.845Z,62.08
2019-05-25T15:46:44.992Z,64.92
2019-05-25T15:56:43.519Z,63.87
2019-05-25T16:06:46.018Z,63.89
2019-05-25T16:16:45.902Z,63.44
2019-05-25T16:26:46.284Z,65.03
2019-05-25T16:36:43.361Z,63.45
2019-05-25T16:46:43.239Z,66.05
2019-05-25T16:56:43.299Z,64.65
2019-05-25T17:06:43.368Z,66.28
2019-05-25T17:16:45.076Z,65.47
2019-05-25T17:26:43.302Z,63.39
2019-05-25T17:36:45.123Z,65.25
2019-05-25T17:46:41.593Z,65.60
2019-05-25T17:56:43.322Z,64.59
2019-05-25T18:06:43.384Z,64.71
2019-05-25T18:16:45.392Z,63.70
2019-05-25T18:26:45.047Z,64.48
2019-05-25T18:36:43.382Z,65.95
2019-05-25T18:46:45.205Z,66.36
2019-05-25T18:56:44.955Z,69.55
2019-05-25T19:06:44.825Z,71.83
